KPVB

Platteville Municipal Airport

Platteville, Wisconsin, USA
METAR KPVB 180215Z AUTO 33005KT 7SM CLR 21/21 A3003 RMK AO1 T02080208
Observed Flight Rules
Aug-18 @ 02:15 UTC (14 minutes ago) Visual Flight Rules
Wind Visibility Clouds
330° at 5 knots 7 miles
  • Clear skies
Temperatures Readings
Current 21°C / 70°F
Dewpoint 21°C / 70°F
Humidity 100%
Altimeter 30.03" Hg
Pressure 1017 hPa
Elevation 313
METAR KPVB 180215Z AUTO 33005KT 7SM CLR 21/21 A3003 RMK AO1 T02080208
Observed Flight Rules
Aug-18 @ 02:15 UTC
(14 minutes ago)
VFR
Wind Visibility
330° at 5 knots 7 miles
Clouds
  • Clear skies
Temperature Dewpoint
21°C / 70°F 21°C / 70°F
Humidity Altimeter Pressure
100% 30.03" Hg 1017 hPa